Time;durP1;ratioP1;P1;durP2;ratioP2;P2;SDS_P1;SDS_P2;PMS_P1;PMS_P2;Temp;Humidity;BMP_temperature;BMP_pressure;BME280_temperature;BME280_humidity;BME280_pressure;Samples;Min_cycle;Max_cycle;Signal;HPM_P1;HPM_P2
2021/09/04 00:02:26;;;;;;;9.70;6.00;;;;;;;13.33;73.53;99575.38;5081237;28;20255;-82
2021/09/04 00:05:15;;;;;;;6.60;5.83;;;;;;;13.30;73.78;99577.75;5085353;28;20274;-86
2021/09/04 00:07:47;;;;;;;8.20;6.03;;;;;;;13.22;73.41;99573.53;5088452;28;20254;-82
2021/09/04 00:10:17;;;;;;;6.37;5.77;;;;;;;13.25;73.74;99578.44;5071735;28;20300;-82
2021/09/04 00:13:09;;;;;;;7.33;6.57;;;;;;;13.16;74.24;99567.22;5090061;28;20224;-81
2021/09/04 00:16:14;;;;;;;6.17;5.57;;;;;;;13.22;74.43;99578.91;5089836;28;20220;-83
2021/09/04 00:18:48;;;;;;;7.10;6.03;;;;;;;13.12;74.44;99560.69;5059149;28;20181;-80
2021/09/04 00:21:20;;;;;;;6.23;5.63;;;;;;;13.15;74.20;99560.25;5082930;23;20271;-81
2021/09/04 00:24:22;;;;;;;6.23;5.67;;;;;;;13.20;74.38;99573.75;5094814;22;20239;-82
2021/09/04 00:27:34;;;;;;;7.40;6.00;;;;;;;13.20;74.07;99565.69;5116342;22;20239;-80
2021/09/04 00:30:18;;;;;;;7.20;5.70;;;;;;;13.20;73.97;99573.75;5061836;28;20168;-81
2021/09/04 00:32:51;;;;;;;6.33;5.73;;;;;;;13.12;74.02;99558.00;5095185;28;20224;-81
2021/09/04 00:35:49;;;;;;;6.80;6.20;;;;;;;13.16;74.11;99564.53;5095065;28;20512;-81
2021/09/04 00:38:41;;;;;;;6.93;6.23;;;;;;;13.14;74.06;99555.09;5095702;28;20219;-80
2021/09/04 00:41:10;;;;;;;7.47;5.37;;;;;;;13.12;74.34;99566.06;5079901;23;20228;-81
2021/09/04 00:44:07;;;;;;;6.53;5.83;;;;;;;13.12;74.39;99559.88;5093123;23;20239;-81
2021/09/04 00:47:05;;;;;;;6.30;5.70;;;;;;;13.09;74.45;99550.38;5094038;28;20247;-81
2021/09/04 00:49:49;;;;;;;6.77;6.07;;;;;;;13.05;74.95;99553.78;5093125;28;20233;-81
2021/09/04 00:52:25;;;;;;;6.60;5.80;;;;;;;13.00;75.23;99551.81;5103329;22;20219;-81
2021/09/04 00:55:06;;;;;;;6.93;6.17;;;;;;;12.94;75.48;99554.63;5078336;23;20225;-80
2021/09/04 00:57:42;;;;;;;7.13;5.57;;;;;;;12.84;74.97;99555.22;5094155;28;20232;-81
2021/09/04 01:00:58;;;;;;;6.50;5.80;;;;;;;12.83;75.01;99555.47;5094986;28;20182;-80
2021/09/04 01:04:07;;;;;;;6.73;5.90;;;;;;;12.77;75.23;99567.97;5052858;28;20228;-80
2021/09/04 01:06:51;;;;;;;6.70;6.00;;;;;;;12.71;75.13;99566.22;5070022;22;20231;-80
2021/09/04 01:09:50;;;;;;;6.60;5.80;;;;;;;12.66;75.32;99558.88;5067986;23;20259;-80
2021/09/04 01:12:39;;;;;;;7.20;6.30;;;;;;;12.64;75.61;99570.91;5073251;28;20329;-80
2021/09/04 01:15:13;;;;;;;7.13;6.20;;;;;;;12.51;75.63;99552.31;5073905;28;20229;-80
2021/09/04 01:17:50;;;;;;;6.80;6.10;;;;;;;12.51;75.92;99573.81;5118328;22;20241;-80
2021/09/04 01:20:50;;;;;;;6.93;5.80;;;;;;;12.41;75.99;99571.69;5065706;28;20308;-80
2021/09/04 01:23:17;;;;;;;7.00;6.23;;;;;;;12.31;76.08;99566.09;5095497;28;20181;-80
2021/09/04 01:26:13;;;;;;;8.47;6.20;;;;;;;12.27;75.88;99573.78;5065557;28;20229;-80
2021/09/04 01:28:44;;;;;;;6.67;6.07;;;;;;;12.16;76.01;99563.03;5084309;23;20189;-79
2021/09/04 01:31:30;;;;;;;6.67;5.97;;;;;;;12.13;76.45;99568.91;5085193;23;20200;-79
2021/09/04 01:34:26;;;;;;;7.80;6.20;;;;;;;12.02;76.42;99538.28;5093719;23;20248;-79
2021/09/04 01:37:07;;;;;;;7.97;6.73;;;;;;;12.08;77.30;99564.22;5071806;23;20302;-80
2021/09/04 01:39:43;;;;;;;7.23;6.53;;;;;;;12.01;77.24;99558.13;5149566;23;20260;-80
2021/09/04 01:42:15;;;;;;;7.50;5.97;;;;;;;11.99;77.52;99557.50;5168567;23;20233;-80
2021/09/04 01:45:21;;;;;;;6.40;5.77;;;;;;;11.95;78.05;99550.97;5094996;28;20212;-80
2021/09/04 01:48:08;;;;;;;7.27;6.00;;;;;;;11.77;77.73;99530.38;5179126;23;20229;-83
2021/09/04 01:51:02;;;;;;;6.57;5.90;;;;;;;11.80;78.48;99545.22;5079383;28;20239;-80
2021/09/04 01:53:45;;;;;;;7.27;6.10;;;;;;;11.81;78.33;99553.03;5079483;28;20170;-80
2021/09/04 01:56:39;;;;;;;7.20;6.50;;;;;;;11.78;78.15;99547.31;5094575;28;20231;-82
2021/09/04 01:59:15;;;;;;;7.10;6.40;;;;;;;11.65;78.30;99531.38;5104560;28;20227;-83
2021/09/04 02:01:44;;;;;;;7.63;6.13;;;;;;;11.58;78.71;99539.50;5114163;28;20183;-83
2021/09/04 02:04:22;;;;;;;7.03;6.33;;;;;;;11.61;78.91;99546.31;5300083;23;20255;-82
2021/09/04 02:06:57;;;;;;;7.63;6.37;;;;;;;11.55;78.61;99552.56;5097277;28;20196;-80
2021/09/04 02:09:58;;;;;;;6.90;6.20;;;;;;;11.41;78.89;99536.66;5099251;28;20228;-80
2021/09/04 02:12:31;;;;;;;9.10;6.53;;;;;;;11.44;79.37;99538.88;5103787;22;20258;-81
2021/09/04 02:15:02;;;;;;;7.03;6.30;;;;;;;11.43;79.21;99547.19;5100485;23;20250;-80
2021/09/04 02:18:02;;;;;;;7.80;6.90;;;;;;;11.42;79.29;99548.22;5270832;22;20192;-80
2021/09/04 02:20:55;;;;;;;7.83;6.40;;;;;;;11.32;79.76;99543.38;5040390;23;20206;-79
2021/09/04 02:23:32;;;;;;;7.93;6.43;;;;;;;11.32;79.77;99547.94;5128243;23;20298;-80
2021/09/04 02:26:27;;;;;;;6.90;6.23;;;;;;;11.30;79.81;99545.47;5022147;28;20201;-81
2021/09/04 02:28:58;;;;;;;7.73;6.50;;;;;;;11.29;79.90;99537.66;5036750;28;20248;-80
2021/09/04 02:31:42;;;;;;;7.60;6.30;;;;;;;11.22;79.89;99528.88;5050460;28;20229;-82
2021/09/04 02:34:20;;;;;;;7.00;6.30;;;;;;;11.25;79.96;99536.44;5245691;23;20307;-80
2021/09/04 02:37:10;;;;;;;8.23;7.03;;;;;;;11.23;80.09;99539.38;5031810;28;20254;-79
2021/09/04 02:40:16;;;;;;;9.00;6.33;;;;;;;11.22;80.18;99540.41;5033636;28;20242;-82
2021/09/04 02:42:53;;;;;;;7.80;6.43;;;;;;;11.19;79.84;99530.16;5052456;22;20206;-82
2021/09/04 02:45:35;;;;;;;7.67;6.73;;;;;;;11.20;80.13;99539.81;5053311;28;20198;-82
2021/09/04 02:48:21;;;;;;;6.93;6.27;;;;;;;11.16;79.77;99540.50;5053157;28;20248;-82
2021/09/04 02:51:03;;;;;;;7.00;6.30;;;;;;;11.12;80.22;99534.78;4965990;28;20217;-82
2021/09/04 02:53:56;;;;;;;7.43;6.20;;;;;;;11.06;80.31;99534.88;5038221;23;20222;-82
2021/09/04 02:56:45;;;;;;;6.63;5.73;;;;;;;11.07;80.39;99536.47;5052743;28;20249;-82
2021/09/04 02:59:36;;;;;;;6.70;5.67;;;;;;;10.97;80.43;99535.16;5079450;23;20233;-82
2021/09/04 03:02:09;;;;;;;7.00;6.10;;;;;;;10.79;80.45;99513.72;5057766;28;20232;-82
2021/09/04 03:04:49;;;;;;;6.90;6.20;;;;;;;10.89;80.38;99538.13;5084974;23;20220;-82
2021/09/04 03:07:53;;;;;;;7.07;6.20;;;;;;;10.78;80.58;99505.91;5047118;28;20227;-82
2021/09/04 03:10:56;;;;;;;7.10;6.40;;;;;;;10.90;80.73;99520.19;5098572;23;20247;-82
2021/09/04 03:13:28;;;;;;;6.90;6.20;;;;;;;10.89;80.95;99524.72;5174362;22;20244;-83
2021/09/04 03:19:00;;;;;;;8.23;6.43;;;;;;;10.91;81.13;99524.53;5076792;23;20283;-82
2021/09/04 03:21:39;;;;;;;7.57;6.63;;;;;;;10.89;81.40;99516.69;5058145;28;20229;-82
2021/09/04 03:24:35;;;;;;;7.07;6.23;;;;;;;10.87;81.34;99516.09;5110897;22;20236;-82
2021/09/04 03:27:27;;;;;;;7.00;6.03;;;;;;;10.83;81.19;99514.91;5079910;28;20185;-82
2021/09/04 03:30:24;;;;;;;6.90;6.20;;;;;;;10.87;81.50;99523.34;5090790;23;20229;-82
2021/09/04 03:33:22;;;;;;;7.27;6.47;;;;;;;10.78;81.76;99504.03;5093932;22;20292;-84
2021/09/04 03:35:52;;;;;;;7.57;6.47;;;;;;;10.82;81.87;99523.19;5037464;28;20237;-82
2021/09/04 03:38:39;;;;;;;7.70;6.90;;;;;;;10.81;81.92;99514.31;5078397;23;20251;-83
2021/09/04 03:41:19;;;;;;;6.93;6.10;;;;;;;10.77;81.75;99513.13;5067164;28;20221;-83
2021/09/04 03:44:03;;;;;;;7.50;6.40;;;;;;;10.74;81.89;99510.88;5078213;23;20217;-82
2021/09/04 03:46:50;;;;;;;7.37;6.53;;;;;;;10.79;81.75;99519.06;5114817;22;20296;-82
2021/09/04 03:49:21;;;;;;;7.57;6.67;;;;;;;10.73;81.73;99509.25;5105729;23;20225;-82
2021/09/04 03:52:26;;;;;;;7.33;6.23;;;;;;;10.74;82.06;99508.22;5077023;28;20228;-82
2021/09/04 03:55:12;;;;;;;6.67;6.03;;;;;;;10.78;82.21;99520.09;5094403;23;20252;-81
2021/09/04 03:57:48;;;;;;;7.23;6.53;;;;;;;10.78;82.42;99513.97;5051951;28;20209;-82
2021/09/04 04:00:33;;;;;;;7.67;6.30;;;;;;;10.72;82.01;99515.66;5051122;28;20228;-82
2021/09/04 04:03:41;;;;;;;7.00;6.30;;;;;;;10.64;81.97;99505.22;5060388;23;20220;-82
2021/09/04 04:06:13;;;;;;;7.00;6.30;;;;;;;10.68;82.19;99514.47;5056174;23;20233;-82
2021/09/04 04:08:53;;;;;;;7.20;6.37;;;;;;;10.66;82.07;99516.53;5070617;28;20292;-82
2021/09/04 04:11:46;;;;;;;8.07;6.33;;;;;;;10.69;82.04;99521.44;5108017;23;20236;-82
2021/09/04 04:14:18;;;;;;;7.00;6.30;;;;;;;10.65;82.04;99524.81;5006718;28;20222;-82
2021/09/04 04:16:46;;;;;;;7.17;6.47;;;;;;;10.66;82.01;99527.25;5010531;28;20277;-82
2021/09/04 04:19:23;;;;;;;9.20;6.23;;;;;;;10.61;82.05;99519.06;5011018;28;20235;-83
2021/09/04 04:21:50;;;;;;;7.57;6.80;;;;;;;10.60;81.63;99523.59;4975417;28;20235;-82
2021/09/04 04:24:20;;;;;;;8.67;6.77;;;;;;;10.62;81.67;99541.31;5031764;23;20216;-82
2021/09/04 04:26:54;;;;;;;8.00;6.37;;;;;;;10.61;81.95;99540.50;5072997;28;20197;-82
2021/09/04 04:29:28;;;;;;;7.73;6.93;;;;;;;10.58;81.88;99530.25;5117424;23;20235;-82
2021/09/04 04:31:59;;;;;;;8.13;6.40;;;;;;;10.63;81.85;99543.78;5089583;28;20169;-83
2021/09/04 04:34:36;;;;;;;7.97;6.67;;;;;;;10.67;81.96;99549.53;5089337;28;20224;-82
2021/09/04 04:37:18;;;;;;;7.50;6.70;;;;;;;10.68;81.85;99546.63;5087375;23;20244;-82
2021/09/04 04:39:54;;;;;;;6.53;5.93;;;;;;;10.64;81.60;99540.06;5039729;28;20189;-82
2021/09/04 04:42:27;;;;;;;7.13;6.43;;;;;;;10.75;81.46;99552.72;5087455;28;20227;-82
2021/09/04 04:45:02;;;;;;;6.73;6.13;;;;;;;10.67;81.52;99536.13;5071719;23;20224;-83
2021/09/04 04:47:40;;;;;;;7.17;6.10;;;;;;;10.82;81.62;99550.81;5071702;28;20228;-82
2021/09/04 04:50:09;;;;;;;6.97;6.27;;;;;;;10.93;81.36;99551.91;5154680;23;20240;-82
2021/09/04 04:52:38;;;;;;;6.83;6.17;;;;;;;11.09;81.26;99554.00;5052391;28;20221;-81
2021/09/04 04:55:18;;;;;;;6.90;6.10;;;;;;;11.20;80.98;99555.91;5084160;28;20233;-82
2021/09/04 04:58:08;;;;;;;6.90;5.90;;;;;;;11.29;80.71;99545.72;5084609;28;20225;-82
2021/09/04 05:00:39;;;;;;;7.60;6.43;;;;;;;11.45;80.38;99550.44;5047081;23;20329;-82
2021/09/04 05:03:15;;;;;;;7.70;6.30;;;;;;;11.54;79.50;99538.34;5024971;28;20510;-82
2021/09/04 05:05:59;;;;;;;7.27;6.53;;;;;;;11.78;79.35;99555.38;5011927;28;20599;-82
2021/09/04 05:09:01;;;;;;;8.77;7.87;;;;;;;11.88;79.27;99556.47;5032128;28;20187;-82
2021/09/04 05:12:04;;;;;;;7.77;6.97;;;;;;;12.10;78.34;99561.28;5164590;22;20232;-82
2021/09/04 05:15:10;;;;;;;7.10;6.40;;;;;;;12.21;78.38;99558.63;5102359;23;20236;-82
2021/09/04 05:17:52;;;;;;;9.27;6.70;;;;;;;12.47;77.92;99567.28;5063085;28;20217;-81
2021/09/04 05:20:33;;;;;;;6.93;6.20;;;;;;;12.64;77.19;99565.53;5095858;28;20208;-82
2021/09/04 05:23:33;;;;;;;8.87;5.97;;;;;;;12.72;76.55;99552.56;5179252;23;20238;-81
2021/09/04 05:26:19;;;;;;;6.37;5.77;;;;;;;12.91;76.30;99557.78;5054871;28;20233;-81
2021/09/04 05:29:11;;;;;;;6.77;6.07;;;;;;;13.19;75.33;99582.91;5098889;23;20231;-78
2021/09/04 05:32:23;;;;;;;6.60;6.00;;;;;;;13.35;74.77;99564.38;5184555;23;20221;-78
2021/09/04 05:35:05;;;;;;;6.17;5.57;;;;;;;13.56;74.58;99578.00;5077226;28;20559;-79
2021/09/04 05:38:23;;;;;;;6.73;5.60;;;;;;;13.74;73.55;99576.97;5067023;28;20414;-79
2021/09/04 05:41:15;;;;;;;6.27;5.67;;;;;;;13.97;73.27;99586.81;5097599;23;21201;-79
2021/09/04 05:43:45;;;;;;;7.17;5.87;;;;;;;14.10;72.86;99573.84;5063544;23;20221;-79
2021/09/04 05:46:50;;;;;;;6.50;5.90;;;;;;;14.32;71.86;99578.53;5131410;22;20240;-78
2021/09/04 05:49:37;;;;;;;6.40;5.70;;;;;;;14.48;71.28;99583.94;5014744;28;20224;-78
2021/09/04 05:52:41;;;;;;;6.17;5.57;;;;;;;14.69;70.36;99579.69;5035272;28;20218;-83
2021/09/04 05:55:50;;;;;;;6.33;5.73;;;;;;;14.84;69.51;99582.59;5072000;22;20252;-85
2021/09/04 05:58:24;;;;;;;5.73;5.23;;;;;;;14.90;69.32;99576.19;5066829;28;20241;-88
2021/09/04 06:00:52;;;;;;;6.07;5.47;;;;;;;15.12;68.86;99580.78;5057930;28;20261;-87
2021/09/04 06:03:19;;;;;;;5.87;5.37;;;;;;;15.20;67.75;99577.69;5056841;28;20251;-85
2021/09/04 06:05:45;;;;;;;7.83;5.43;;;;;;;15.33;68.05;99580.81;5056775;28;20529;-84
2021/09/04 06:08:12;;;;;;;6.23;5.00;;;;;;;15.50;67.78;99578.03;5057155;28;20542;-84
2021/09/04 06:10:40;;;;;;;5.40;4.90;;;;;;;15.58;67.35;99561.44;5056197;28;20241;-82
2021/09/04 06:13:07;;;;;;;6.60;4.73;;;;;;;15.84;66.94;99578.72;5039382;28;20296;-90
2021/09/04 06:15:33;;;;;;;4.90;4.50;;;;;;;15.92;66.22;99566.59;5023246;28;20262;-82
2021/09/04 06:18:00;;;;;;;6.63;5.33;;;;;;;16.06;66.27;99573.22;5039679;28;20274;-84
2021/09/04 06:20:27;;;;;;;6.00;5.07;;;;;;;16.23;65.90;99569.34;5043029;28;20559;-85
2021/09/04 06:22:54;;;;;;;5.00;4.60;;;;;;;16.36;65.15;99575.38;5028098;28;20319;-91
2021/09/04 06:25:21;;;;;;;5.83;5.20;;;;;;;16.46;64.82;99572.78;5051413;28;20229;-90
2021/09/04 06:27:49;;;;;;;6.00;4.93;;;;;;;16.57;64.29;99566.34;5050359;28;20251;-83
2021/09/04 06:30:15;;;;;;;5.30;4.80;;;;;;;16.70;63.86;99565.94;5076669;28;20234;-87
2021/09/04 06:32:42;;;;;;;5.50;4.60;;;;;;;16.84;63.60;99572.53;5059414;28;20255;-86
2021/09/04 06:35:11;;;;;;;5.40;4.90;;;;;;;17.02;63.33;99584.81;5076095;28;20236;-87
2021/09/04 06:37:37;;;;;;;5.10;4.60;;;;;;;17.07;63.29;99580.22;5076854;28;20315;-88
2021/09/04 06:40:05;;;;;;;5.77;5.20;;;;;;;17.23;63.25;99581.09;5056035;28;20228;-82
2021/09/04 06:42:32;;;;;;;5.30;4.80;;;;;;;17.33;63.28;99586.56;5091727;28;20259;-83
2021/09/04 06:44:59;;;;;;;6.60;4.83;;;;;;;17.46;63.13;99571.72;5050304;28;20659;-84
2021/09/04 06:47:26;;;;;;;5.93;5.03;;;;;;;17.59;62.80;99584.78;5038358;28;20229;-90
2021/09/04 06:49:53;;;;;;;5.63;5.07;;;;;;;17.65;63.13;99572.06;5023051;28;20621;-85
2021/09/04 06:52:20;;;;;;;6.30;5.17;;;;;;;17.79;62.54;99575.91;5073571;28;20320;-90
2021/09/04 06:54:47;;;;;;;6.47;5.07;;;;;;;17.93;62.11;99577.00;5058848;28;20351;-88
2021/09/04 06:57:13;;;;;;;5.77;5.23;;;;;;;18.13;61.69;99578.94;5075686;28;20623;-89
2021/09/04 06:59:40;;;;;;;6.53;5.67;;;;;;;18.13;61.56;99562.66;5073644;28;20229;-88
2021/09/04 07:02:07;;;;;;;5.70;4.87;;;;;;;18.34;61.15;99570.53;5074838;28;20314;-92
2021/09/04 07:04:34;;;;;;;5.20;4.70;;;;;;;18.38;60.66;99565.41;5042389;28;20307;-83
2021/09/04 07:07:04;;;;;;;8.37;4.97;;;;;;;18.60;59.67;99586.84;5074492;28;20689;-92
2021/09/04 07:09:32;;;;;;;5.30;4.80;;;;;;;18.68;59.64;99584.38;5075280;28;20260;-84
2021/09/04 07:11:59;;;;;;;5.63;5.13;;;;;;;18.69;59.04;99574.34;5038270;28;20299;-86
2021/09/04 07:14:25;;;;;;;5.97;5.13;;;;;;;18.80;58.39;99565.91;5022157;28;20244;-92
2021/09/04 07:16:52;;;;;;;5.60;4.63;;;;;;;18.92;57.95;99579.19;5038157;28;20253;-89
2021/09/04 07:19:19;;;;;;;5.23;4.60;;;;;;;19.02;57.92;99575.63;5055429;28;20286;-90
2021/09/04 07:21:46;;;;;;;7.60;5.07;;;;;;;19.07;57.89;99572.91;5053601;28;20233;-88
2021/09/04 07:24:13;;;;;;;5.47;4.93;;;;;;;19.23;56.93;99582.59;5038549;28;20233;-91
2021/09/04 07:26:40;;;;;;;6.00;5.10;;;;;;;19.31;56.91;99580.16;5054504;28;20254;-83
2021/09/04 07:29:06;;;;;;;6.00;5.00;;;;;;;19.38;57.35;99579.84;5026172;28;20254;-91
2021/09/04 07:31:36;;;;;;;6.03;5.43;;;;;;;19.54;57.26;99586.06;5043277;28;20275;-93
2021/09/04 07:34:03;;;;;;;5.77;5.00;;;;;;;19.61;56.71;99576.50;5066404;28;20224;-90
2021/09/04 07:36:30;;;;;;;5.97;5.33;;;;;;;19.82;56.01;99590.00;5056612;28;20225;-93
2021/09/04 07:38:56;;;;;;;6.50;5.50;;;;;;;19.77;54.58;99569.09;5057686;28;20307;-93
2021/09/04 07:41:23;;;;;;;7.47;5.80;;;;;;;19.90;54.43;99581.22;5061359;28;20313;-81
2021/09/04 07:43:50;;;;;;;6.57;5.50;;;;;;;20.06;54.16;99599.09;5038115;28;20234;-91
2021/09/04 07:46:19;;;;;;;6.10;5.50;;;;;;;20.22;53.83;99582.38;5055068;28;20654;-85
2021/09/04 07:48:46;;;;;;;6.07;5.37;;;;;;;20.37;53.39;99594.25;5042879;28;20519;-85
2021/09/04 07:51:13;;;;;;;5.67;5.17;;;;;;;20.49;53.75;99592.78;5074572;28;20310;-91
2021/09/04 07:53:39;;;;;;;6.67;5.17;;;;;;;20.59;53.18;99595.41;5041159;28;20696;-84
2021/09/04 07:56:06;;;;;;;6.87;5.47;;;;;;;20.62;52.41;99583.16;5063574;28;20591;-90
2021/09/04 07:58:35;;;;;;;7.10;5.40;;;;;;;20.74;52.49;99591.75;5054473;28;20224;-89
2021/09/04 08:01:01;;;;;;;6.43;5.23;;;;;;;20.78;52.21;99584.63;5038003;28;20313;-88
2021/09/04 08:03:29;;;;;;;5.57;4.63;;;;;;;20.92;51.83;99585.56;5054287;28;20295;-90
2021/09/04 08:05:56;;;;;;;7.33;5.40;;;;;;;20.92;50.51;99599.19;5046448;28;20494;-91
2021/09/04 08:08:23;;;;;;;6.57;5.97;;;;;;;21.15;50.95;99594.06;5057405;28;20334;-82
2021/09/04 08:10:50;;;;;;;7.57;5.10;;;;;;;21.30;50.92;99602.88;5058218;28;20230;-92
2021/09/04 08:13:17;;;;;;;6.27;5.17;;;;;;;21.38;50.91;99602.25;5074806;28;20319;-84
2021/09/04 08:15:44;;;;;;;6.50;5.90;;;;;;;21.49;50.26;99614.66;5056414;28;20224;-89
2021/09/04 08:18:11;;;;;;;6.57;5.83;;;;;;;21.41;50.28;99600.84;5041112;28;20276;-91
2021/09/04 08:20:38;;;;;;;5.90;5.30;;;;;;;21.56;50.49;99600.66;5057846;28;20536;-89
2021/09/04 08:23:07;;;;;;;5.97;5.37;;;;;;;21.61;50.97;99606.03;5074192;28;20235;-86
2021/09/04 08:25:37;;;;;;;6.20;5.50;;;;;;;21.61;50.37;99603.31;5054067;28;20255;-89
2021/09/04 08:28:08;;;;;;;6.37;5.17;;;;;;;21.44;50.91;99601.09;5054407;28;20257;-89
2021/09/04 08:30:36;;;;;;;8.07;5.60;;;;;;;21.60;50.81;99585.34;5053915;28;20301;-86
2021/09/04 08:33:03;;;;;;;5.87;5.20;;;;;;;21.68;50.88;99587.41;5053246;28;20323;-90
2021/09/04 08:35:30;;;;;;;5.73;5.13;;;;;;;21.73;50.92;99592.81;5053629;28;20315;-88
2021/09/04 08:37:59;;;;;;;8.07;5.23;;;;;;;21.71;50.47;99592.28;5037252;28;20257;-82
2021/09/04 08:40:25;;;;;;;6.90;5.60;;;;;;;21.78;49.11;99589.19;5037286;28;20279;-88
2021/09/04 08:42:52;;;;;;;6.20;4.73;;;;;;;21.86;47.74;99583.06;5057711;28;20692;-90
2021/09/04 08:45:19;;;;;;;5.10;4.60;;;;;;;22.12;47.52;99589.78;5043338;28;20315;-90
2021/09/04 08:47:48;;;;;;;5.50;4.67;;;;;;;22.22;47.74;99586.91;5076759;28;20328;-84
2021/09/04 08:50:14;;;;;;;6.93;4.60;;;;;;;22.38;47.77;99599.22;5044095;28;20537;-85
2021/09/04 08:52:41;;;;;;;5.10;4.60;;;;;;;22.46;46.80;99591.44;5060743;28;20248;-91
2021/09/04 08:55:08;;;;;;;5.27;4.70;;;;;;;22.57;46.47;99599.19;5077645;28;20234;-91
2021/09/04 08:57:35;;;;;;;5.00;4.43;;;;;;;22.54;46.73;99594.31;5059985;28;20278;-90
2021/09/04 09:00:02;;;;;;;5.57;4.50;;;;;;;22.64;46.56;99602.31;5076703;28;20581;-90
2021/09/04 09:02:30;;;;;;;4.73;4.30;;;;;;;22.69;45.55;99595.97;5043539;28;20315;-82
2021/09/04 09:05:09;;;;;;;6.40;4.70;;;;;;;22.69;45.92;99596.78;5060403;28;20821;-89
2021/09/04 09:07:39;;;;;;;5.37;4.67;;;;;;;22.82;45.26;99590.56;5059668;28;20232;-84
2021/09/04 09:10:28;;;;;;;5.33;4.83;;;;;;;22.97;45.30;99584.00;5059697;28;20272;-87
2021/09/04 09:12:55;;;;;;;6.17;4.30;;;;;;;23.01;44.54;99576.00;5077209;28;20303;-81
2021/09/04 09:15:27;;;;;;;5.00;4.40;;;;;;;23.21;44.85;99584.63;5043726;28;20789;-89
2021/09/04 09:18:15;;;;;;;5.93;4.30;;;;;;;23.30;45.03;99575.72;5077305;28;20339;-85
2021/09/04 09:20:46;;;;;;;4.27;3.93;;;;;;;23.42;44.31;99567.81;5060189;28;20298;-87
2021/09/04 09:23:18;;;;;;;4.60;4.20;;;;;;;23.56;43.68;99568.66;5060455;28;20282;-88
2021/09/04 09:25:46;;;;;;;4.30;4.00;;;;;;;23.58;43.59;99575.41;5056443;28;20244;-90
2021/09/04 09:28:23;;;;;;;5.10;4.60;;;;;;;23.61;43.37;99574.81;5056397;28;20316;-86
2021/09/04 09:30:52;;;;;;;4.97;4.07;;;;;;;23.58;43.00;99561.75;5056567;28;20270;-87
2021/09/04 09:33:21;;;;;;;5.03;4.50;;;;;;;23.59;43.13;99557.91;5057039;28;20239;-88
2021/09/04 09:35:50;;;;;;;4.80;4.10;;;;;;;23.59;42.18;99551.63;5043856;28;20315;-87
2021/09/04 09:38:21;;;;;;;5.68;4.05;;;;;;;23.75;42.07;99563.81;5092595;28;20252;-85
2021/09/04 09:40:52;;;;;;;4.78;4.22;;;;;;;23.65;42.70;99562.16;5072554;28;20232;-82
2021/09/04 09:43:24;;;;;;;5.47;4.15;;;;;;;23.94;42.20;99569.16;5060859;28;20250;-87
2021/09/04 09:45:57;;;;;;;4.45;4.00;;;;;;;24.12;40.37;99558.03;5074806;28;20608;-81
2021/09/04 09:48:29;;;;;;;4.88;3.95;;;;;;;24.31;39.45;99562.56;5042973;28;20244;-90
2021/09/04 09:50:58;;;;;;;4.70;4.20;;;;;;;24.42;38.92;99559.25;5076740;28;20249;-91
2021/09/04 09:53:26;;;;;;;4.67;4.00;;;;;;;24.42;38.54;99547.47;5059386;28;20319;-91
2021/09/04 09:55:54;;;;;;;4.10;3.70;;;;;;;24.58;37.85;99550.66;5057640;28;20244;-91
2021/09/04 09:58:23;;;;;;;6.38;4.20;;;;;;;24.68;37.07;99553.94;5038823;28;20234;-90
2021/09/04 10:00:51;;;;;;;4.30;3.75;;;;;;;24.74;37.75;99549.94;5056592;28;20312;-87
2021/09/04 10:03:20;;;;;;;4.55;4.15;;;;;;;24.81;37.60;99550.28;5072618;28;20231;-84
2021/09/04 10:05:47;;;;;;;5.15;3.88;;;;;;;24.88;37.39;99558.88;5039638;28;20226;-84
2021/09/04 10:08:16;;;;;;;6.43;3.80;;;;;;;25.06;37.92;99562.50;5060318;28;20249;-86
2021/09/04 10:10:43;;;;;;;4.55;4.15;;;;;;;25.21;37.40;99558.53;5076485;28;20232;-89
2021/09/04 10:13:12;;;;;;;5.60;4.45;;;;;;;25.27;37.21;99554.53;5059884;28;20252;-85
2021/09/04 10:15:40;;;;;;;4.63;4.22;;;;;;;25.41;37.17;99557.94;5075303;28;20221;-89
2021/09/04 10:18:08;;;;;;;4.38;3.97;;;;;;;25.51;36.13;99565.06;5059347;28;20235;-81
2021/09/04 10:20:36;;;;;;;4.40;4.00;;;;;;;25.53;35.72;99549.91;5077307;28;20331;-89
2021/09/04 10:23:27;;;;;;;4.60;3.88;;;;;;;25.67;36.24;99558.03;5065842;28;20255;-86
2021/09/04 10:25:54;;;;;;;4.40;4.00;;;;;;;25.62;35.18;99563.66;5056082;28;20224;-89
2021/09/04 10:28:21;;;;;;;5.22;4.05;;;;;;;25.64;34.77;99561.41;5039379;28;20243;-82
2021/09/04 10:30:52;;;;;;;4.38;4.00;;;;;;;25.60;35.51;99552.22;5056037;28;20311;-87
2021/09/04 10:33:26;;;;;;;4.40;4.00;;;;;;;25.64;34.83;99555.94;5040666;28;20232;-90
2021/09/04 10:35:58;;;;;;;4.93;3.95;;;;;;;25.78;35.02;99557.41;5055807;28;20605;-87
2021/09/04 10:38:30;;;;;;;6.43;5.82;;;;;;;25.92;35.02;99551.75;5055864;28;20307;-90
2021/09/04 10:41:12;;;;;;;4.97;3.80;;;;;;;26.09;34.51;99559.16;5039173;28;20228;-84
2021/09/04 10:43:44;;;;;;;4.60;4.20;;;;;;;26.13;34.66;99549.19;5055993;28;20256;-85
2021/09/04 10:46:12;;;;;;;7.00;6.00;;;;;;;26.17;34.85;99558.38;5055579;28;20271;-81
2021/09/04 10:48:39;;;;;;;5.63;5.10;;;;;;;26.14;34.35;99550.78;5055718;28;20234;-89
2021/09/04 10:51:10;;;;;;;4.82;4.43;;;;;;;26.34;34.76;99563.06;5066219;28;20235;-87
2021/09/04 10:54:03;;;;;;;6.00;5.43;;;;;;;26.57;33.27;99568.03;5075812;28;20585;-87
2021/09/04 10:56:31;;;;;;;6.57;5.47;;;;;;;26.65;33.67;99564.44;5038490;28;20246;-88
2021/09/04 10:58:58;;;;;;;4.28;3.92;;;;;;;26.60;32.71;99550.06;5059151;28;20234;-88
2021/09/04 11:01:27;;;;;;;4.18;3.70;;;;;;;26.64;32.30;99548.31;5051277;28;20285;-82
2021/09/04 11:03:57;;;;;;;4.68;4.00;;;;;;;26.59;31.65;99535.56;5038536;28;20315;-90
2021/09/04 11:06:25;;;;;;;4.43;4.03;;;;;;;26.55;31.87;99545.56;5038473;28;20289;-90
2021/09/04 11:08:53;;;;;;;4.63;4.22;;;;;;;26.21;31.68;99543.72;5054649;28;20232;-87
2021/09/04 11:11:38;;;;;;;3.85;3.55;;;;;;;26.15;31.96;99546.91;5055329;28;20249;-84
2021/09/04 11:14:16;;;;;;;4.03;3.50;;;;;;;26.01;32.31;99538.84;5054592;28;21058;-89
2021/09/04 11:16:51;;;;;;;4.32;3.90;;;;;;;26.35;31.56;99540.78;5057376;28;20690;-89
2021/09/04 11:19:31;;;;;;;4.03;3.67;;;;;;;26.41;31.50;99547.69;5038423;28;20258;-85
2021/09/04 11:22:12;;;;;;;3.90;3.50;;;;;;;26.49;31.08;99533.16;5055281;28;20260;-89
2021/09/04 11:24:45;;;;;;;4.38;3.72;;;;;;;26.53;31.71;99542.34;5038440;28;20310;-83
2021/09/04 11:27:18;;;;;;;3.63;3.33;;;;;;;26.81;30.04;99540.00;5055071;28;20290;-85
2021/09/04 11:29:53;;;;;;;4.20;3.78;;;;;;;26.97;29.08;99535.59;5055756;28;20235;-90
2021/09/04 11:32:23;;;;;;;4.20;3.80;;;;;;;27.22;28.94;99535.81;5074535;28;20226;-88
2021/09/04 11:35:10;;;;;;;3.88;3.58;;;;;;;27.21;29.08;99523.19;5057272;28;20310;-88
2021/09/04 11:37:41;;;;;;;4.15;3.63;;;;;;;27.42;28.44;99522.09;5073623;28;20236;-84
2021/09/04 11:40:15;;;;;;;4.35;3.58;;;;;;;27.35;28.49;99526.50;5057815;28;20385;-91
2021/09/04 11:42:43;;;;;;;4.30;3.90;;;;;;;27.32;28.97;99519.72;5075939;28;20259;-89
2021/09/04 11:45:11;;;;;;;5.72;3.92;;;;;;;27.20;29.70;99502.34;5041497;28;20235;-86
2021/09/04 11:47:40;;;;;;;4.72;3.72;;;;;;;27.24;29.16;99506.84;5057878;28;20258;-91
2021/09/04 11:50:09;;;;;;;4.20;3.80;;;;;;;27.33;29.57;99504.03;5037468;28;20363;-82
2021/09/04 11:52:40;;;;;;;3.67;3.38;;;;;;;27.47;30.26;99519.16;5054299;28;20236;-84
2021/09/04 11:55:06;;;;;;;4.28;3.97;;;;;;;27.68;30.67;99516.44;5037579;28;20323;-87
2021/09/04 11:57:35;;;;;;;4.30;3.90;;;;;;;27.71;29.30;99517.72;5054320;28;20332;-85
2021/09/04 12:00:04;;;;;;;4.43;4.03;;;;;;;27.23;29.35;99502.47;5054107;28;20282;-93
2021/09/04 12:02:43;;;;;;;4.03;3.72;;;;;;;27.39;29.21;99509.00;5069887;28;20238;-92
2021/09/04 12:05:11;;;;;;;3.50;3.20;;;;;;;27.01;29.80;99505.50;5074696;28;20267;-85
2021/09/04 12:07:43;;;;;;;4.18;3.65;;;;;;;27.07;29.02;99513.22;5058238;28;20282;-86
2021/09/04 12:10:11;;;;;;;4.13;3.78;;;;;;;26.95;29.42;99499.38;5073733;28;20303;-89
2021/09/04 12:12:39;;;;;;;3.65;3.33;;;;;;;26.72;30.01;99506.25;5057812;28;20986;-86
2021/09/04 12:15:10;;;;;;;4.00;3.60;;;;;;;26.90;30.02;99498.78;5057865;28;20245;-89
2021/09/04 12:17:54;;;;;;;4.05;3.67;;;;;;;26.92;30.45;99502.78;5042415;28;20227;-91
2021/09/04 12:20:39;;;;;;;4.53;4.13;;;;;;;27.13;31.06;99509.16;5054670;28;20319;-84
2021/09/04 12:23:19;;;;;;;4.22;3.85;;;;;;;27.39;30.53;99500.75;5058495;28;20256;-87